createdAt,value
2016-05-11T00:00:04.603Z,90.8
2016-05-11T00:00:14.368Z,90.9
2016-05-11T00:00:24.700Z,91.1
2016-05-11T00:00:34.356Z,91.1
2016-05-11T00:00:44.356Z,90.8
2016-05-11T00:00:54.356Z,91.2
2016-05-11T00:01:04.371Z,91
2016-05-11T00:01:14.356Z,91.2
2016-05-11T00:01:24.342Z,91.1
2016-05-11T00:01:34.327Z,91.1
2016-05-11T00:01:44.327Z,91.3
2016-05-11T00:01:54.327Z,91.6
2016-05-11T00:02:04.327Z,91.5
2016-05-11T00:02:14.311Z,91.2
2016-05-11T00:02:24.314Z,91.7
2016-05-11T00:02:34.314Z,91.8
2016-05-11T00:02:44.298Z,91.5
2016-05-11T00:02:54.298Z,91.6
2016-05-11T00:03:04.298Z,91.8
2016-05-11T00:03:14.298Z,91.7
2016-05-11T00:03:24.145Z,91.6
2016-05-11T00:03:34.129Z,91.2
2016-05-11T00:03:44.129Z,90.8
2016-05-11T00:03:54.129Z,91
2016-05-11T00:04:04.270Z,90.8
2016-05-11T00:04:14.270Z,90.8
2016-05-11T00:04:24.256Z,91.1
2016-05-11T00:04:34.256Z,90.6
2016-05-11T00:04:44.272Z,90.8
2016-05-11T00:04:54.241Z,91.1
2016-05-11T00:05:04.241Z,91
2016-05-11T00:05:14.241Z,91
2016-05-11T00:05:24.088Z,91.1
2016-05-11T00:05:34.072Z,90.5
2016-05-11T00:05:44.072Z,90.6
2016-05-11T00:05:54.228Z,90.4
2016-05-11T00:06:04.213Z,90.5
2016-05-11T00:06:14.213Z,90.4
2016-05-11T00:06:24.059Z,90.9
2016-05-11T00:06:34.200Z,90.3
2016-05-11T00:06:44.200Z,90.6
2016-05-11T00:06:54.044Z,90.2
2016-05-11T00:07:04.184Z,90.1
2016-05-11T00:07:14.184Z,90.1
2016-05-11T00:07:24.202Z,90.3
2016-05-11T00:07:34.186Z,90.8
2016-05-11T00:07:44.171Z,90.3
2016-05-11T00:07:54.218Z,90.9
2016-05-11T00:08:04.171Z,90.9
2016-05-11T00:08:14.155Z,90.9
2016-05-11T00:08:24.159Z,90.9
2016-05-11T00:08:34.159Z,91.1
2016-05-11T00:08:44.003Z,90.7
2016-05-11T00:08:54.143Z,90.9
2016-05-11T00:09:04.143Z,91.1
2016-05-11T00:09:14.143Z,90.9
2016-05-11T00:09:24.145Z,90.5
2016-05-11T00:09:34.130Z,90.5
2016-05-11T00:09:44.145Z,90.6
2016-05-11T00:09:54.130Z,90.4
2016-05-11T00:10:04.114Z,90.5
2016-05-11T00:10:13.958Z,90.8
2016-05-11T00:10:24.116Z,90.4
2016-05-11T00:10:34.116Z,90.3
2016-05-11T00:10:44.319Z,90.8
2016-05-11T00:10:54.101Z,91.1
2016-05-11T00:11:04.101Z,90.9
2016-05-11T00:11:14.085Z,90.8
2016-05-11T00:11:24.089Z,90.8
2016-05-11T00:11:33.933Z,91.2
2016-05-11T00:11:44.073Z,91.2
2016-05-11T00:11:53.917Z,91.3
2016-05-11T00:12:04.073Z,91.5
2016-05-11T00:12:14.058Z,91.8
2016-05-11T00:12:24.060Z,91.2
2016-05-11T00:12:34.060Z,91
2016-05-11T00:12:44.060Z,91.3
2016-05-11T00:12:54.044Z,91.1
2016-05-11T00:13:04.044Z,91.2
2016-05-11T00:13:14.028Z,91.6
2016-05-11T00:13:24.030Z,91.5
2016-05-11T00:13:34.030Z,91.2
2016-05-11T00:13:44.030Z,91.4
2016-05-11T00:13:54.015Z,90.9
2016-05-11T00:14:04.015Z,90.8
2016-05-11T00:14:14.015Z,91
2016-05-11T00:14:24.003Z,90.4
2016-05-11T00:14:34.003Z,91
2016-05-11T00:14:44.066Z,91
2016-05-11T00:14:53.988Z,90.4
2016-05-11T00:15:03.847Z,90.9
2016-05-11T00:15:13.988Z,90.4
2016-05-11T00:15:24.083Z,90.5
2016-05-11T00:15:33.974Z,91.2
2016-05-11T00:15:43.974Z,90.9
2016-05-11T00:15:53.974Z,91.2
2016-05-11T00:16:03.958Z,91.6
2016-05-11T00:16:13.958Z,91.6
2016-05-11T00:16:23.961Z,91.7
2016-05-11T00:16:33.946Z,91.6
2016-05-11T00:16:43.946Z,91.2
2016-05-11T00:16:53.946Z,91
2016-05-11T00:17:03.930Z,90.7
2016-05-11T00:17:13.774Z,90.8
2016-05-11T00:17:23.932Z,90.8
2016-05-11T00:17:33.932Z,91.6
2016-05-11T00:17:43.932Z,91.6
2016-05-11T00:17:53.916Z,91.5
2016-05-11T00:18:03.916Z,91.5
2016-05-11T00:18:13.916Z,91.6
2016-05-11T00:18:23.919Z,91.7
2016-05-11T00:18:33.904Z,91.4
2016-05-11T00:18:43.904Z,91.3
2016-05-11T00:18:53.888Z,91.2
2016-05-11T00:19:03.748Z,91.5
2016-05-11T00:19:13.888Z,91.3
2016-05-11T00:19:23.891Z,90.9
2016-05-11T00:19:33.876Z,90.9
2016-05-11T00:19:43.876Z,90.8
2016-05-11T00:19:53.876Z,91.6
2016-05-11T00:20:03.860Z,91.6
2016-05-11T00:20:13.860Z,91.6
2016-05-11T00:20:23.862Z,91.7
2016-05-11T00:20:33.846Z,91.2
2016-05-11T00:20:43.706Z,91.7
2016-05-11T00:20:53.846Z,91.8
2016-05-11T00:21:03.831Z,91.5
2016-05-11T00:21:13.831Z,91.8
2016-05-11T00:21:23.818Z,91.4
2016-05-11T00:21:33.834Z,91.9
2016-05-11T00:21:43.818Z,92.1
2016-05-11T00:21:53.818Z,92.3
2016-05-11T00:22:03.818Z,92.3
2016-05-11T00:22:13.802Z,92.4
2016-05-11T00:22:23.805Z,92.5
2016-05-11T00:22:33.805Z,91.8
2016-05-11T00:22:43.790Z,92.3
2016-05-11T00:22:53.805Z,92.8
2016-05-11T00:23:03.790Z,91.5
2016-05-11T00:23:13.774Z,92.5
2016-05-11T00:23:23.776Z,92.5
2016-05-11T00:23:33.792Z,91.8
2016-05-11T00:23:43.776Z,92.6
2016-05-11T00:23:53.776Z,91.8
2016-05-11T00:24:03.761Z,91.8
2016-05-11T00:24:13.761Z,91.9
2016-05-11T00:24:23.749Z,91.8
2016-05-11T00:24:33.749Z,91.9
2016-05-11T00:24:43.749Z,91.8
2016-05-11T00:24:53.749Z,91.5
2016-05-11T00:25:03.733Z,91.9
2016-05-11T00:25:13.733Z,92.4
2016-05-11T00:25:23.735Z,91.9
2016-05-11T00:25:33.720Z,92
2016-05-11T00:25:43.720Z,91.9
2016-05-11T00:25:53.704Z,91.6
2016-05-11T00:26:03.704Z,92
2016-05-11T00:26:13.704Z,91.3
2016-05-11T00:26:23.707Z,91.4
2016-05-11T00:26:33.707Z,91.7
2016-05-11T00:26:43.707Z,91.6
2016-05-11T00:26:53.691Z,91.7
2016-05-11T00:27:03.535Z,91.4
2016-05-11T00:27:13.676Z,91.5
2016-05-11T00:27:23.679Z,91.9
2016-05-11T00:27:33.679Z,91.4
2016-05-11T00:27:43.663Z,91.4
2016-05-11T00:27:53.663Z,91.3
2016-05-11T00:28:03.663Z,91.9
2016-05-11T00:28:13.648Z,92
2016-05-11T00:28:23.507Z,92.2
2016-05-11T00:28:33.650Z,91.8
2016-05-11T00:28:43.493Z,92
2016-05-11T00:28:53.650Z,92.1
2016-05-11T00:29:03.650Z,91.5
2016-05-11T00:29:13.650Z,91.8
2016-05-11T00:29:23.618Z,91.8
2016-05-11T00:29:33.621Z,91.2
2016-05-11T00:29:43.606Z,91.5
2016-05-11T00:29:53.606Z,91.5
2016-05-11T00:30:03.621Z,91.1
2016-05-11T00:30:13.621Z,91.5
2016-05-11T00:30:23.621Z,91.5
2016-05-11T00:30:33.592Z,91.7
2016-05-11T00:30:43.592Z,91.4
2016-05-11T00:30:53.608Z,91.6
2016-05-11T00:31:03.576Z,91.9
2016-05-11T00:31:13.592Z,92.1
2016-05-11T00:31:23.576Z,92.3
2016-05-11T00:31:33.564Z,92.1
2016-05-11T00:31:43.564Z,92.3
2016-05-11T00:31:53.564Z,91.9
2016-05-11T00:32:03.564Z,91.7
2016-05-11T00:32:13.564Z,92.1
2016-05-11T00:32:23.564Z,92
2016-05-11T00:32:33.551Z,91.9
2016-05-11T00:32:43.536Z,91.3
2016-05-11T00:32:53.551Z,91.5
2016-05-11T00:33:03.520Z,91.6
2016-05-11T00:33:13.536Z,91.8
2016-05-11T00:33:23.536Z,91.5
2016-05-11T00:33:33.523Z,91.5
2016-05-11T00:33:43.523Z,92
2016-05-11T00:33:53.507Z,91.4
2016-05-11T00:34:03.507Z,91.5
2016-05-11T00:34:13.507Z,91.5
2016-05-11T00:34:23.492Z,91.6
2016-05-11T00:34:33.494Z,91.5
2016-05-11T00:34:43.494Z,91.4
2016-05-11T00:34:53.478Z,91.3
2016-05-11T00:35:03.478Z,91.7
2016-05-11T00:35:13.478Z,91.7
2016-05-11T00:35:23.478Z,91.4
2016-05-11T00:35:33.325Z,91.6
2016-05-11T00:35:43.465Z,91.8
2016-05-11T00:35:53.309Z,91.2
2016-05-11T00:36:03.450Z,90.8
2016-05-11T00:36:13.450Z,90.9
2016-05-11T00:36:23.434Z,91.5
2016-05-11T00:36:33.468Z,91.4
2016-05-11T00:36:43.437Z,91.5
2016-05-11T00:36:53.453Z,91.4
2016-05-11T00:37:03.281Z,91.6
2016-05-11T00:37:13.422Z,91.6
2016-05-11T00:37:23.422Z,91.8
2016-05-11T00:37:33.408Z,92.3
2016-05-11T00:37:43.408Z,92
2016-05-11T00:37:53.408Z,92.1
2016-05-11T00:38:03.408Z,92.3
2016-05-11T00:38:13.392Z,92.3
2016-05-11T00:38:23.392Z,92.4
2016-05-11T00:38:33.395Z,92.2
2016-05-11T00:38:43.395Z,92.2
2016-05-11T00:38:53.395Z,92.1
2016-05-11T00:39:03.364Z,92.5
2016-05-11T00:39:13.223Z,91.9
2016-05-11T00:39:23.364Z,91.3
2016-05-11T00:39:33.367Z,91.7
2016-05-11T00:39:43.351Z,91.7
2016-05-11T00:39:53.351Z,91.2
2016-05-11T00:40:03.351Z,91.3
2016-05-11T00:40:13.351Z,91.6
2016-05-11T00:40:23.351Z,91.3
2016-05-11T00:40:33.338Z,91.5
2016-05-11T00:40:43.338Z,91.4
2016-05-11T00:40:53.353Z,91.8
2016-05-11T00:41:03.322Z,92
2016-05-11T00:41:13.322Z,91.8
2016-05-11T00:41:23.322Z,92
2016-05-11T00:41:33.310Z,92.1
2016-05-11T00:41:43.310Z,91.6
2016-05-11T00:41:53.310Z,91.7
2016-05-11T00:42:03.310Z,91.6
2016-05-11T00:42:13.294Z,91.6
2016-05-11T00:42:23.294Z,91.8
2016-05-11T00:42:33.296Z,91.4
2016-05-11T00:42:43.280Z,91.5
2016-05-11T00:42:53.280Z,91.6
2016-05-11T00:43:03.265Z,91.2
2016-05-11T00:43:13.124Z,91
2016-05-11T00:43:23.265Z,91.1
2016-05-11T00:43:33.112Z,91
2016-05-11T00:43:43.269Z,91.2
2016-05-11T00:43:53.097Z,91.4
2016-05-11T00:44:03.097Z,91.7
2016-05-11T00:44:13.237Z,91.6
2016-05-11T00:44:23.253Z,91.6
2016-05-11T00:44:33.239Z,91.2
2016-05-11T00:44:43.083Z,91.2
2016-05-11T00:44:53.880Z,91.4
2016-05-11T00:45:03.599Z,91.7
2016-05-11T00:45:13.208Z,90.9
2016-05-11T00:45:23.068Z,91.2
2016-05-11T00:45:33.555Z,91
2016-05-11T00:45:43.211Z,91.6
2016-05-11T00:45:53.211Z,91.6
2016-05-11T00:46:03.211Z,91.7
2016-05-11T00:46:13.211Z,91.4
2016-05-11T00:46:23.196Z,91.3
2016-05-11T00:46:33.199Z,91.6
2016-05-11T00:46:43.183Z,91.3
2016-05-11T00:46:53.183Z,92.1
2016-05-11T00:47:03.167Z,91.8
2016-05-11T00:47:13.167Z,92.1
2016-05-11T00:47:23.167Z,91.4
2016-05-11T00:47:33.154Z,92.1
2016-05-11T00:47:43.169Z,91.5
2016-05-11T00:47:53.154Z,92.3
2016-05-11T00:48:03.154Z,92.1
2016-05-11T00:48:13.138Z,92.3
2016-05-11T00:48:22.982Z,91.9
2016-05-11T00:48:33.141Z,91.8
2016-05-11T00:48:43.125Z,91.9
2016-05-11T00:48:53.157Z,91.9
2016-05-11T00:49:03.125Z,92.4
2016-05-11T00:49:13.110Z,92.3
2016-05-11T00:49:23.110Z,92.5
2016-05-11T00:49:33.113Z,92.2
2016-05-11T00:49:43.097Z,92.2
2016-05-11T00:49:53.097Z,92.3
2016-05-11T00:50:03.097Z,91.6
2016-05-11T00:50:13.097Z,92.6
2016-05-11T00:50:23.082Z,91.9
2016-05-11T00:50:33.099Z,92.5
2016-05-11T00:50:43.068Z,92.5
2016-05-11T00:50:53.084Z,92.8
2016-05-11T00:51:02.912Z,92.3
2016-05-11T00:51:13.068Z,92.5
2016-05-11T00:51:23.052Z,92.2
2016-05-11T00:51:33.055Z,92.1
2016-05-11T00:51:43.055Z,92.3
2016-05-11T00:51:53.040Z,92.2
2016-05-11T00:52:03.055Z,91.8
2016-05-11T00:52:13.040Z,91.9
2016-05-11T00:52:23.040Z,92.6
2016-05-11T00:52:33.026Z,91.8
2016-05-11T00:52:43.042Z,92.8
2016-05-11T00:52:53.026Z,91.7
2016-05-11T00:53:03.010Z,92.1
2016-05-11T00:53:12.854Z,92.2
2016-05-11T00:53:22.854Z,92.3
2016-05-11T00:53:32.998Z,92.2
2016-05-11T00:53:42.998Z,92.7
2016-05-11T00:53:52.998Z,92.8
2016-05-11T00:54:02.998Z,93
2016-05-11T00:54:12.998Z,92.8
2016-05-11T00:54:22.842Z,92.6
2016-05-11T00:54:32.985Z,92.3
2016-05-11T00:54:42.985Z,92.2
2016-05-11T00:54:52.970Z,92.2
2016-05-11T00:55:02.970Z,92.1
2016-05-11T00:55:12.970Z,92.2
2016-05-11T00:55:22.954Z,92.5
2016-05-11T00:55:32.957Z,92.6
2016-05-11T00:55:42.957Z,92.4
2016-05-11T00:55:52.957Z,92.5
2016-05-11T00:56:02.941Z,92.7
2016-05-11T00:56:12.941Z,92.5
2016-05-11T00:56:22.926Z,92.5
2016-05-11T00:56:32.928Z,92.5
2016-05-11T00:56:42.912Z,92.7
2016-05-11T00:56:52.928Z,92.5
2016-05-11T00:57:02.912Z,93.1
2016-05-11T00:57:12.912Z,93.4
2016-05-11T00:57:22.896Z,93.1
2016-05-11T00:57:32.915Z,93.4
2016-05-11T00:57:42.899Z,93.4
2016-05-11T00:57:52.899Z,93.4
2016-05-11T00:58:02.884Z,93
2016-05-11T00:58:12.884Z,92.7
2016-05-11T00:58:22.884Z,93.2
2016-05-11T00:58:32.871Z,93
2016-05-11T00:58:42.887Z,93.6
2016-05-11T00:58:52.871Z,93.7
2016-05-11T00:59:02.871Z,93.3
2016-05-11T00:59:12.856Z,93.5
2016-05-11T00:59:22.856Z,93.1
2016-05-11T00:59:32.858Z,92.8
2016-05-11T00:59:42.842Z,93.2
2016-05-11T00:59:52.842Z,93.2
2016-05-11T01:00:03.358Z,93.3
2016-05-11T01:00:13.029Z,93.5
2016-05-11T01:00:23.201Z,93.2
2016-05-11T01:00:33.095Z,93.2
2016-05-11T01:00:42.829Z,93.3
2016-05-11T01:00:52.814Z,92.9
2016-05-11T01:01:02.814Z,93.3
2016-05-11T01:01:12.814Z,93.3
2016-05-11T01:01:22.798Z,93.1
2016-05-11T01:01:32.800Z,93.5
2016-05-11T01:01:42.800Z,93.4
2016-05-11T01:01:52.800Z,93.4
2016-05-11T01:02:02.784Z,93.2
2016-05-11T01:02:12.784Z,93
2016-05-11T01:02:22.784Z,93.5
2016-05-11T01:02:32.772Z,93.5
2016-05-11T01:02:42.772Z,93.6
2016-05-11T01:02:52.616Z,93.8
2016-05-11T01:03:02.756Z,93.6
2016-05-11T01:03:12.756Z,93.5
2016-05-11T01:03:22.756Z,93.2
2016-05-11T01:03:32.744Z,93.6
2016-05-11T01:03:42.744Z,93.5
2016-05-11T01:03:52.759Z,93.8
2016-05-11T01:04:02.744Z,93.5
2016-05-11T01:04:12.728Z,93.7
2016-05-11T01:04:22.728Z,93.1
2016-05-11T01:04:32.731Z,93.3
2016-05-11T01:04:42.715Z,93
2016-05-11T01:04:52.715Z,93.3
2016-05-11T01:05:02.715Z,93.3
2016-05-11T01:05:12.715Z,93.2
2016-05-11T01:05:22.700Z,93.1
2016-05-11T01:05:32.703Z,93.1
2016-05-11T01:05:42.703Z,92.9
2016-05-11T01:05:52.531Z,93
2016-05-11T01:06:02.687Z,93.2
2016-05-11T01:06:12.671Z,92.8
2016-05-11T01:06:22.671Z,92.4
2016-05-11T01:06:32.673Z,92.5
2016-05-11T01:06:42.673Z,92.5
2016-05-11T01:06:52.658Z,92.9
2016-05-11T01:07:02.673Z,92.9
2016-05-11T01:07:12.502Z,92.8
2016-05-11T01:07:22.658Z,92.8
2016-05-11T01:07:32.645Z,92.8
2016-05-11T01:07:42.645Z,92.9
2016-05-11T01:07:52.630Z,93.1
2016-05-11T01:08:02.630Z,92.5
2016-05-11T01:08:12.630Z,92.6
2016-05-11T01:08:22.614Z,92.5
2016-05-11T01:08:32.616Z,92.6
2016-05-11T01:08:42.616Z,92.5
2016-05-11T01:08:52.616Z,92.5
2016-05-11T01:09:02.600Z,92.3
2016-05-11T01:09:12.600Z,92.3
2016-05-11T01:09:22.600Z,92.5
2016-05-11T01:09:32.588Z,92.4
2016-05-11T01:09:42.603Z,92.2
2016-05-11T01:09:52.588Z,92.2
2016-05-11T01:10:02.588Z,92.5
2016-05-11T01:10:12.416Z,92.6
2016-05-11T01:10:22.572Z,92.5
2016-05-11T01:10:32.575Z,92.9
2016-05-11T01:10:42.575Z,93.2
2016-05-11T01:10:52.559Z,92.9
2016-05-11T01:11:02.544Z,93.1
2016-05-11T01:11:12.544Z,93.5
2016-05-11T01:11:22.544Z,93.5
2016-05-11T01:11:32.547Z,93.4
2016-05-11T01:11:42.531Z,93.5
2016-05-11T01:11:52.547Z,93.2
2016-05-11T01:12:02.531Z,93.3
2016-05-11T01:12:12.531Z,93.1
2016-05-11T01:12:22.531Z,93.3
2016-05-11T01:12:32.519Z,93.3
2016-05-11T01:12:42.519Z,93.4
2016-05-11T01:12:52.362Z,92.9
2016-05-11T01:13:02.503Z,93.1
2016-05-11T01:13:12.503Z,93.8
2016-05-11T01:13:22.503Z,93.6
2016-05-11T01:13:32.333Z,93.8
2016-05-11T01:13:42.489Z,93.5
2016-05-11T01:13:52.489Z,93.3
2016-05-11T01:14:02.474Z,93.3
2016-05-11T01:14:12.317Z,92.8
2016-05-11T01:14:22.474Z,93.1
2016-05-11T01:14:32.477Z,93.4
2016-05-11T01:14:42.461Z,93.1
2016-05-11T01:14:52.461Z,93.3
2016-05-11T01:15:02.461Z,93.1
2016-05-11T01:15:12.617Z,93.2
2016-05-11T01:15:22.899Z,93
2016-05-11T01:15:32.447Z,93
2016-05-11T01:15:42.432Z,93
2016-05-11T01:15:52.447Z,93.3
2016-05-11T01:16:02.432Z,93.1
2016-05-11T01:16:12.416Z,93.8
2016-05-11T01:16:22.416Z,93.6
2016-05-11T01:16:32.405Z,93.7
2016-05-11T01:16:42.405Z,93.6
2016-05-11T01:16:52.264Z,94.2
2016-05-11T01:17:02.389Z,94.1
2016-05-11T01:17:12.405Z,94.2
2016-05-11T01:17:22.389Z,94.4
2016-05-11T01:17:32.390Z,94.2
2016-05-11T01:17:42.390Z,94.1
2016-05-11T01:17:52.374Z,94.2
2016-05-11T01:18:02.374Z,94.1
2016-05-11T01:18:12.374Z,94
2016-05-11T01:18:22.218Z,94.1
2016-05-11T01:18:32.362Z,94.7
2016-05-11T01:18:42.362Z,94.6
2016-05-11T01:18:52.362Z,94.5
2016-05-11T01:19:02.362Z,94.5
2016-05-11T01:19:12.346Z,94.6
2016-05-11T01:19:22.330Z,94.6
2016-05-11T01:19:32.333Z,94.5
2016-05-11T01:19:42.333Z,94.4
2016-05-11T01:19:52.333Z,94.6
2016-05-11T01:20:02.333Z,94.5
2016-05-11T01:20:12.318Z,94.5
2016-05-11T01:20:22.318Z,94.5
2016-05-11T01:20:32.321Z,94.4
2016-05-11T01:20:42.305Z,94.2
2016-05-11T01:20:52.305Z,94.1
2016-05-11T01:21:02.305Z,93.9
2016-05-11T01:21:12.290Z,94.1
2016-05-11T01:21:22.290Z,94.7
2016-05-11T01:21:32.277Z,94.5
2016-05-11T01:21:42.121Z,94.3
2016-05-11T01:21:52.277Z,94.5
2016-05-11T01:22:02.277Z,94.5
2016-05-11T01:22:12.293Z,94.4
2016-05-11T01:22:22.261Z,94.5
2016-05-11T01:22:32.263Z,94.5
2016-05-11T01:22:42.248Z,94.6
2016-05-11T01:22:52.248Z,94.5
2016-05-11T01:23:02.263Z,94.6
2016-05-11T01:23:12.248Z,94.7
2016-05-11T01:23:22.232Z,94.7
2016-05-11T01:23:32.251Z,94.2
2016-05-11T01:23:42.235Z,94.2
2016-05-11T01:23:52.298Z,94
2016-05-11T01:24:02.219Z,94.1
2016-05-11T01:24:12.219Z,94.5
2016-05-11T01:24:22.219Z,94.5
2016-05-11T01:24:32.237Z,94.7
2016-05-11T01:24:42.206Z,94.5
2016-05-11T01:24:52.190Z,95
2016-05-11T01:25:02.190Z,94.9
2016-05-11T01:25:12.190Z,94.9
2016-05-11T01:25:22.175Z,95.3
2016-05-11T01:25:32.179Z,95.3
2016-05-11T01:25:42.022Z,95
2016-05-11T01:25:52.179Z,94.8
2016-05-11T01:26:02.163Z,95.3
2016-05-11T01:26:12.179Z,95.1
2016-05-11T01:26:22.179Z,94.8
2016-05-11T01:26:32.149Z,95
2016-05-11T01:26:41.993Z,95.3
2016-05-11T01:26:52.149Z,94.6
2016-05-11T01:27:02.134Z,94.6
2016-05-11T01:27:11.993Z,94.8
2016-05-11T01:27:22.134Z,95.3
2016-05-11T01:27:32.137Z,95.3
2016-05-11T01:27:42.137Z,95.1
2016-05-11T01:27:52.121Z,95.2
2016-05-11T01:28:02.121Z,95.2
2016-05-11T01:28:12.121Z,95.1
2016-05-11T01:28:22.105Z,95
2016-05-11T01:28:32.108Z,94.9
2016-05-11T01:28:42.093Z,94.9
2016-05-11T01:28:52.093Z,95
2016-05-11T01:29:02.093Z,95.3
2016-05-11T01:29:11.937Z,94.7
2016-05-11T01:29:21.921Z,94.5
2016-05-11T01:29:32.079Z,94.5
2016-05-11T01:29:42.079Z,94.6
2016-05-11T01:29:52.064Z,94.5
2016-05-11T01:30:02.064Z,94.5
2016-05-11T01:30:11.907Z,94.5
2016-05-11T01:30:21.892Z,94
2016-05-11T01:30:32.066Z,94.1
2016-05-11T01:30:42.081Z,93.7
2016-05-11T01:30:52.097Z,93.7
2016-05-11T01:31:01.878Z,93.8
2016-05-11T01:31:12.034Z,94.2
2016-05-11T01:31:22.019Z,94
2016-05-11T01:31:32.022Z,94.2
2016-05-11T01:31:42.022Z,94.5
2016-05-11T01:31:51.865Z,94.5
2016-05-11T01:32:02.022Z,94.7
2016-05-11T01:32:12.006Z,94.5
2016-05-11T01:32:22.006Z,95.3
2016-05-11T01:32:31.854Z,95.1
2016-05-11T01:32:41.994Z,95.4
2016-05-11T01:32:51.994Z,95.4
2016-05-11T01:33:02.026Z,95.7
2016-05-11T01:33:11.979Z,96.1
2016-05-11T01:33:21.979Z,95.7
2016-05-11T01:33:31.965Z,95.6
2016-05-11T01:33:41.965Z,95.9
2016-05-11T01:33:51.965Z,95.9
2016-05-11T01:34:01.965Z,95.7
2016-05-11T01:34:11.981Z,96.1
2016-05-11T01:34:21.965Z,95.8
2016-05-11T01:34:31.953Z,95.9
2016-05-11T01:34:41.937Z,95.4
2016-05-11T01:34:51.937Z,95.5
2016-05-11T01:35:01.781Z,95.4
2016-05-11T01:35:11.937Z,95.2
2016-05-11T01:35:21.937Z,95.2
2016-05-11T01:35:31.923Z,95.5
2016-05-11T01:35:41.939Z,95.3
2016-05-11T01:35:51.923Z,95.7
2016-05-11T01:36:01.908Z,95.4
2016-05-11T01:36:11.908Z,95.3
2016-05-11T01:36:21.908Z,95.2
2016-05-11T01:36:31.895Z,95.3
2016-05-11T01:36:41.739Z,94.8
2016-05-11T01:36:51.895Z,95.3
2016-05-11T01:37:01.879Z,94.6
2016-05-11T01:37:11.879Z,94.8
2016-05-11T01:37:21.723Z,94.8
2016-05-11T01:37:31.866Z,94.5
2016-05-11T01:37:41.881Z,94.7
2016-05-11T01:37:51.866Z,94.5
2016-05-11T01:38:01.866Z,94.5
2016-05-11T01:38:11.850Z,94.8
2016-05-11T01:38:21.897Z,94.6
2016-05-11T01:38:31.854Z,94.7
2016-05-11T01:38:41.839Z,94.5
2016-05-11T01:38:51.854Z,94.5
2016-05-11T01:39:01.839Z,94.5
2016-05-11T01:39:11.823Z,94.3
2016-05-11T01:39:21.823Z,94.9
2016-05-11T01:39:31.825Z,95.4
2016-05-11T01:39:41.825Z,94.7
2016-05-11T01:39:51.653Z,94.5
2016-05-11T01:40:01.809Z,94.8
2016-05-11T01:40:11.794Z,94.7
2016-05-11T01:40:21.794Z,94.6
2016-05-11T01:40:31.796Z,94.5
2016-05-11T01:40:41.639Z,94.7
2016-05-11T01:40:51.796Z,94.4
2016-05-11T01:41:01.639Z,94.4
2016-05-11T01:41:11.780Z,94.5
2016-05-11T01:41:21.764Z,94.2
2016-05-11T01:41:31.768Z,94.7
2016-05-11T01:41:41.612Z,94.7
2016-05-11T01:41:51.753Z,94.1
2016-05-11T01:42:01.612Z,94.7
2016-05-11T01:42:11.753Z,94.4
2016-05-11T01:42:21.753Z,94.7
2016-05-11T01:42:31.739Z,94.7
2016-05-11T01:42:41.739Z,94.4
2016-05-11T01:42:51.583Z,94.5
2016-05-11T01:43:01.724Z,94.5
2016-05-11T01:43:11.739Z,94.6
2016-05-11T01:43:21.724Z,94.6
2016-05-11T01:43:31.727Z,94.6
2016-05-11T01:43:41.727Z,94.6
2016-05-11T01:43:51.711Z,94.3
2016-05-11T01:44:01.711Z,94.6
2016-05-11T01:44:11.695Z,94.5
2016-05-11T01:44:21.680Z,94.5
2016-05-11T01:44:31.698Z,94.7
2016-05-11T01:44:41.698Z,94.4
2016-05-11T01:44:51.714Z,94.5
2016-05-11T01:45:01.683Z,94.5
2016-05-11T01:45:11.526Z,94.5
2016-05-11T01:45:22.183Z,94.7
2016-05-11T01:45:31.669Z,94.5
2016-05-11T01:45:42.278Z,94.4
2016-05-11T01:45:51.497Z,94.6
2016-05-11T01:46:01.653Z,94.7
2016-05-11T01:46:11.638Z,94.5
2016-05-11T01:46:21.638Z,94.7
2016-05-11T01:46:31.640Z,94.5
2016-05-11T01:46:41.640Z,94.7
2016-05-11T01:46:51.624Z,94.9
2016-05-11T01:47:01.624Z,94.5
2016-05-11T01:47:11.624Z,94.5
2016-05-11T01:47:21.609Z,94.4
2016-05-11T01:47:31.612Z,94.4
2016-05-11T01:47:41.612Z,94.6
2016-05-11T01:47:51.612Z,94.3
2016-05-11T01:48:01.596Z,94
2016-05-11T01:48:11.596Z,94.2
2016-05-11T01:48:21.440Z,94
2016-05-11T01:48:31.600Z,94.5
2016-05-11T01:48:41.428Z,94.5
2016-05-11T01:48:51.569Z,94.7
2016-05-11T01:49:01.584Z,94.4
2016-05-11T01:49:11.584Z,95.3
2016-05-11T01:49:21.569Z,95.1
2016-05-11T01:49:31.571Z,95.2
2016-05-11T01:49:41.571Z,95.3
2016-05-11T01:49:51.555Z,95.3
2016-05-11T01:50:01.539Z,94.5
2016-05-11T01:50:11.383Z,94.5
2016-05-11T01:50:21.539Z,94.5
2016-05-11T01:50:31.542Z,95.4
2016-05-11T01:50:41.527Z,95.1
2016-05-11T01:50:51.527Z,95.1
2016-05-11T01:51:01.527Z,95.3
2016-05-11T01:51:11.527Z,95.6
2016-05-11T01:51:21.511Z,95.4
2016-05-11T01:51:31.544Z,95.7
2016-05-11T01:51:41.513Z,95.6
2016-05-11T01:51:51.498Z,95.6
2016-05-11T01:52:01.498Z,95.5
2016-05-11T01:52:11.498Z,95.3
2016-05-11T01:52:21.482Z,94.7
2016-05-11T01:52:31.485Z,94.5
2016-05-11T01:52:41.485Z,94.5
2016-05-11T01:52:51.485Z,94.8
2016-05-11T01:53:01.485Z,94.9
2016-05-11T01:53:11.469Z,94.9
2016-05-11T01:53:21.469Z,94.4
2016-05-11T01:53:31.457Z,94.6
2016-05-11T01:53:41.316Z,94.5
2016-05-11T01:53:51.457Z,94.9
2016-05-11T01:54:01.285Z,94.5
2016-05-11T01:54:11.441Z,94.5
2016-05-11T01:54:21.425Z,94.6
2016-05-11T01:54:31.287Z,94.5
2016-05-11T01:54:41.427Z,95.1
2016-05-11T01:54:51.427Z,95.2
2016-05-11T01:55:01.427Z,95.3
2016-05-11T01:55:11.412Z,95.1
2016-05-11T01:55:21.412Z,95.6
2016-05-11T01:55:31.399Z,95.8
2016-05-11T01:55:41.399Z,96.1
2016-05-11T01:55:51.399Z,96.6
2016-05-11T01:56:01.415Z,96.4
2016-05-11T01:56:11.399Z,96.5
2016-05-11T01:56:21.384Z,96.4
2016-05-11T01:56:31.387Z,96.3
2016-05-11T01:56:41.371Z,96.9
2016-05-11T01:56:51.215Z,95.9
2016-05-11T01:57:01.355Z,95.8
2016-05-11T01:57:11.371Z,95.9
2016-05-11T01:57:21.355Z,96
2016-05-11T01:57:31.358Z,95.7
2016-05-11T01:57:41.343Z,95.7
2016-05-11T01:57:51.343Z,95.7
2016-05-11T01:58:01.343Z,96
2016-05-11T01:58:11.343Z,95.8
2016-05-11T01:58:21.343Z,95.7
2016-05-11T01:58:31.345Z,95.8
2016-05-11T01:58:41.329Z,95.7
2016-05-11T01:58:51.313Z,95.6
2016-05-11T01:59:01.313Z,95.6
2016-05-11T01:59:11.313Z,95.8
2016-05-11T01:59:21.313Z,96.1
2016-05-11T01:59:31.301Z,95.6
2016-05-11T01:59:41.301Z,95.3
2016-05-11T01:59:51.301Z,95.2
2016-05-11T02:00:01.285Z,95.1
2016-05-11T02:00:11.285Z,95.2
2016-05-11T02:00:21.426Z,95.4
2016-05-11T02:00:31.272Z,95.8
2016-05-11T02:00:41.272Z,95.8
2016-05-11T02:00:51.272Z,95.4
2016-05-11T02:01:01.115Z,95.5
2016-05-11T02:01:11.256Z,95.6
2016-05-11T02:01:21.256Z,95.4
2016-05-11T02:01:31.259Z,95.1
2016-05-11T02:01:41.259Z,95.5
2016-05-11T02:01:51.243Z,95.4
2016-05-11T02:02:01.071Z,95.7
2016-05-11T02:02:11.228Z,95.5
2016-05-11T02:02:21.228Z,95.3
2016-05-11T02:02:31.230Z,95.6
2016-05-11T02:02:41.214Z,95.4
2016-05-11T02:02:51.214Z,96
2016-05-11T02:03:01.058Z,95.7
2016-05-11T02:03:11.214Z,95.8
2016-05-11T02:03:21.198Z,95.9
2016-05-11T02:03:31.202Z,96
2016-05-11T02:03:41.202Z,95.5
2016-05-11T02:03:51.202Z,95.8
2016-05-11T02:04:01.187Z,95.7
2016-05-11T02:04:11.187Z,95.9
2016-05-11T02:04:21.187Z,96.2
2016-05-11T02:04:31.174Z,96.4
2016-05-11T02:04:41.159Z,96.5
2016-05-11T02:04:51.159Z,96.5
2016-05-11T02:05:01.159Z,96.6
2016-05-11T02:05:11.159Z,96.4
2016-05-11T02:05:21.143Z,96.8
2016-05-11T02:05:31.145Z,96.8
2016-05-11T02:05:41.145Z,96.7
2016-05-11T02:05:51.145Z,96.8
2016-05-11T02:06:01.129Z,96.7
2016-05-11T02:06:11.176Z,97.1
2016-05-11T02:06:21.129Z,96.8
2016-05-11T02:06:31.131Z,96.9
2016-05-11T02:06:41.116Z,97.1
2016-05-11T02:06:50.959Z,97.3
2016-05-11T02:07:00.944Z,97.4
2016-05-11T02:07:11.100Z,97.1
2016-05-11T02:07:21.100Z,97.3
2016-05-11T02:07:31.103Z,96.9
2016-05-11T02:07:41.087Z,96.9
2016-05-11T02:07:51.087Z,96.7
2016-05-11T02:08:00.931Z,96.6
2016-05-11T02:08:11.072Z,95.7
2016-05-11T02:08:20.931Z,95.8
2016-05-11T02:08:31.090Z,95.6
2016-05-11T02:08:41.059Z,95.4
2016-05-11T02:08:50.903Z,95.6
2016-05-11T02:09:01.044Z,95.6
2016-05-11T02:09:11.059Z,96
2016-05-11T02:09:21.044Z,96
2016-05-11T02:09:31.046Z,96.5
2016-05-11T02:09:41.046Z,96.5
2016-05-11T02:09:51.030Z,96.6
2016-05-11T02:10:00.874Z,95.9
2016-05-11T02:10:11.030Z,95.6
2016-05-11T02:10:21.014Z,96.1
2016-05-11T02:10:31.017Z,95.9
2016-05-11T02:10:41.017Z,95.7
2016-05-11T02:10:51.017Z,95.9
2016-05-11T02:11:01.002Z,95.7
2016-05-11T02:11:11.002Z,95.9
2016-05-11T02:11:21.002Z,95.9
2016-05-11T02:11:30.989Z,95.5
2016-05-11T02:11:40.989Z,95.9
2016-05-11T02:11:50.973Z,95.9
2016-05-11T02:12:00.817Z,96
2016-05-11T02:12:10.989Z,95.8
2016-05-11T02:12:20.989Z,96.1
2016-05-11T02:12:30.976Z,95.5
2016-05-11T02:12:40.961Z,96.2
2016-05-11T02:12:50.961Z,96.4
2016-05-11T02:13:00.789Z,96.9
2016-05-11T02:13:10.805Z,96.6
2016-05-11T02:13:20.945Z,96.9
2016-05-11T02:13:30.947Z,96.8